Time;durP1;ratioP1;P1;durP2;ratioP2;P2;SDS_P1;SDS_P2;PMS_P1;PMS_P2;Temp;Humidity;BMP_temperature;BMP_pressure;BME280_temperature;BME280_humidity;BME280_pressure;Samples;Min_cycle;Max_cycle;Signal;HPM_P1;HPM_P2
2022/12/21 00:01:41;;;;;;;;;;;8.00;99.90;;;;;;5047377;28;19905;-79
2022/12/21 00:04:07;;;;;;;;;;;8.00;99.90;;;;;;5034739;28;19923;-79
2022/12/21 00:06:36;;;;;;;;;;;8.00;99.90;;;;;;5032887;28;19920;-79
2022/12/21 00:09:03;;;;;;;;;;;8.20;99.90;;;;;;5044597;28;19924;-79
2022/12/21 00:11:29;;;;;;;;;;;8.20;99.90;;;;;;5053411;28;20389;-79
2022/12/21 00:13:57;;;;;;;;;;;8.10;99.90;;;;;;5052811;28;19908;-78
2022/12/21 00:16:24;;;;;;;;;;;8.20;99.90;;;;;;5052227;28;19915;-79
2022/12/21 00:18:50;;;;;;;;;;;8.20;99.90;;;;;;5053041;28;20265;-79
2022/12/21 00:21:17;;;;;;;;;;;8.20;99.90;;;;;;5052815;28;20356;-80
2022/12/21 00:23:45;;;;;;;;;;;8.20;99.90;;;;;;5053171;28;19912;-80
2022/12/21 00:26:12;;;;;;;;;;;8.30;99.90;;;;;;5051874;28;19915;-79
2022/12/21 00:28:38;;;;;;;;;;;8.30;99.90;;;;;;5043978;28;19909;-78
2022/12/21 00:31:11;;;;;;;;;;;8.40;99.90;;;;;;5046329;28;19931;-79
2022/12/21 00:33:38;;;;;;;;;;;8.40;99.90;;;;;;5053744;28;19913;-79
2022/12/21 00:36:04;;;;;;;;;;;8.50;99.90;;;;;;5052607;28;19916;-78
2022/12/21 00:38:31;;;;;;;;;;;8.50;99.90;;;;;;5053006;28;19908;-79
2022/12/21 00:40:58;;;;;;;;;;;8.50;99.90;;;;;;5051142;28;19935;-78
2022/12/21 00:43:25;;;;;;;;;;;8.50;99.90;;;;;;5052063;28;19908;-79
2022/12/21 00:45:51;;;;;;;;;;;8.50;99.90;;;;;;5034358;28;19916;-79
2022/12/21 00:48:17;;;;;;;;;;;8.50;99.90;;;;;;5052473;28;19912;-79
2022/12/21 00:50:43;;;;;;;;;;;8.50;99.90;;;;;;5033465;28;20015;-80
2022/12/21 00:53:09;;;;;;;;;;;8.50;99.90;;;;;;5051864;28;19958;-78
2022/12/21 00:55:35;;;;;;;;;;;8.50;99.90;;;;;;5052453;28;19909;-79
2022/12/21 00:58:01;;;;;;;;;;;8.40;99.90;;;;;;5051770;28;19908;-78
2022/12/21 01:00:27;;;;;;;;;;;8.40;99.90;;;;;;5051692;28;19919;-79
2022/12/21 01:02:53;;;;;;;;;;;8.40;99.90;;;;;;5052025;28;20365;-78
2022/12/21 01:05:20;;;;;;;;;;;8.40;99.90;;;;;;5052367;28;19920;-79
2022/12/21 01:07:46;;;;;;;;;;;8.40;99.90;;;;;;5027722;28;19934;-78
2022/12/21 01:10:14;;;;;;;;;;;8.40;99.90;;;;;;5044187;28;19908;-79
2022/12/21 01:12:40;;;;;;;;;;;8.40;99.90;;;;;;5052542;28;19916;-79
2022/12/21 01:15:06;;;;;;;;;;;8.40;99.90;;;;;;5051719;28;19913;-79
2022/12/21 01:17:33;;;;;;;;;;;8.40;99.90;;;;;;5052107;28;19912;-79
2022/12/21 01:20:00;;;;;;;;;;;8.30;99.90;;;;;;5050473;28;19916;-78
2022/12/21 01:22:26;;;;;;;;;;;8.30;99.90;;;;;;5052460;28;19972;-78
2022/12/21 01:24:52;;;;;;;;;;;8.30;99.90;;;;;;5052371;28;19920;-78
2022/12/21 01:27:19;;;;;;;;;;;8.40;99.90;;;;;;5033489;28;19916;-79
2022/12/21 01:29:45;;;;;;;;;;;8.30;99.90;;;;;;5051380;28;20265;-79
2022/12/21 01:32:11;;;;;;;;;;;8.30;99.90;;;;;;5051524;28;19950;-79
2022/12/21 01:34:37;;;;;;;;;;;8.30;99.90;;;;;;5052040;28;19912;-78
2022/12/21 01:37:05;;;;;;;;;;;8.40;99.90;;;;;;5017219;28;19920;-77
2022/12/21 01:39:31;;;;;;;;;;;8.40;99.90;;;;;;5050926;28;20347;-78
2022/12/21 01:41:57;;;;;;;;;;;8.40;99.90;;;;;;5033628;28;19959;-78
2022/12/21 01:44:42;;;;;;;;;;;8.40;99.90;;;;;;5052082;28;19912;-78
2022/12/21 01:47:12;;;;;;;;;;;8.40;99.90;;;;;;5051282;28;20372;-80
2022/12/21 01:49:38;;;;;;;;;;;8.50;99.90;;;;;;5051123;28;19917;-79
2022/12/21 01:52:10;;;;;;;;;;;8.40;99.90;;;;;;5032465;28;19909;-79
2022/12/21 01:54:41;;;;;;;;;;;8.40;99.90;;;;;;5051900;28;19908;-80
2022/12/21 01:57:10;;;;;;;;;;;8.40;99.90;;;;;;5051144;28;20358;-79
2022/12/21 01:59:55;;;;;;;;;;;8.40;99.90;;;;;;5032426;28;19912;-79
2022/12/21 02:02:45;;;;;;;;;;;8.40;99.90;;;;;;5033296;28;20369;-80
2022/12/21 02:05:14;;;;;;;;;;;8.40;99.90;;;;;;5040105;28;19913;-79
2022/12/21 02:07:41;;;;;;;;;;;8.40;99.90;;;;;;5033486;28;19913;-79
2022/12/21 02:10:07;;;;;;;;;;;8.30;99.90;;;;;;5031666;28;19912;-79
2022/12/21 02:12:35;;;;;;;;;;;8.40;99.90;;;;;;5044500;28;20266;-79
2022/12/21 02:15:01;;;;;;;;;;;8.40;99.90;;;;;;5050173;28;19909;-78
2022/12/21 02:17:39;;;;;;;;;;;8.40;99.90;;;;;;5051684;28;19920;-79
2022/12/21 02:20:14;;;;;;;;;;;8.40;99.90;;;;;;5044056;28;19908;-78
2022/12/21 02:22:55;;;;;;;;;;;8.50;99.90;;;;;;5051591;28;20354;-79
2022/12/21 02:25:24;;;;;;;;;;;8.50;99.90;;;;;;5051097;28;19917;-79
2022/12/21 02:28:09;;;;;;;;;;;8.50;99.90;;;;;;5051713;28;19920;-79
2022/12/21 02:30:43;;;;;;;;;;;8.50;99.90;;;;;;5050353;28;20377;-78
2022/12/21 02:33:21;;;;;;;;;;;8.50;99.90;;;;;;5050623;28;19923;-79
2022/12/21 02:36:02;;;;;;;;;;;8.60;99.90;;;;;;5014329;28;19913;-79
2022/12/21 02:38:31;;;;;;;;;;;8.50;99.90;;;;;;5033722;28;19920;-78
2022/12/21 02:41:20;;;;;;;;;;;8.50;99.90;;;;;;5031006;28;19916;-77
2022/12/21 02:44:14;;;;;;;;;;;8.60;99.90;;;;;;5051355;28;19923;-78
2022/12/21 02:46:59;;;;;;;;;;;8.60;99.90;;;;;;5032795;28;19913;-79
2022/12/21 02:49:28;;;;;;;;;;;8.60;99.90;;;;;;5048967;28;19916;-78
2022/12/21 02:52:02;;;;;;;;;;;8.60;99.90;;;;;;5033016;28;19908;-79
2022/12/21 02:54:28;;;;;;;;;;;8.60;99.90;;;;;;5051292;28;19909;-78
2022/12/21 02:56:56;;;;;;;;;;;8.50;99.90;;;;;;5032765;28;19913;-78
2022/12/21 02:59:27;;;;;;;;;;;8.50;99.90;;;;;;5049489;28;20385;-79
2022/12/21 03:02:08;;;;;;;;;;;8.60;99.90;;;;;;5033038;28;19908;-78
2022/12/21 03:04:39;;;;;;;;;;;8.60;99.90;;;;;;5051191;28;20362;-78
2022/12/21 03:07:15;;;;;;;;;;;8.60;99.90;;;;;;5033383;28;19916;-77
2022/12/21 03:09:49;;;;;;;;;;;8.60;99.90;;;;;;5035137;28;20277;-79
2022/12/21 03:12:15;;;;;;;;;;;8.60;99.90;;;;;;5053978;28;19915;-78
2022/12/21 03:14:50;;;;;;;;;;;8.60;99.90;;;;;;5036888;28;19908;-79
2022/12/21 03:17:16;;;;;;;;;;;8.60;99.90;;;;;;5035833;28;19908;-78
2022/12/21 03:19:46;;;;;;;;;;;8.60;99.90;;;;;;5034913;28;19908;-78
2022/12/21 03:22:26;;;;;;;;;;;8.60;99.90;;;;;;5035229;28;19915;-79
2022/12/21 03:25:15;;;;;;;;;;;8.60;99.90;;;;;;5054364;28;19912;-79
2022/12/21 03:27:43;;;;;;;;;;;8.60;99.90;;;;;;5051195;28;20278;-79
2022/12/21 03:30:14;;;;;;;;;;;8.60;99.90;;;;;;5033677;28;19908;-78
2022/12/21 03:33:09;;;;;;;;;;;8.60;99.90;;;;;;5053333;28;19916;-78
2022/12/21 03:35:56;;;;;;;;;;;8.60;99.90;;;;;;5031121;28;20376;-78
2022/12/21 03:38:24;;;;;;;;;;;8.60;99.90;;;;;;5035131;28;20676;-79
2022/12/21 03:40:53;;;;;;;;;;;8.60;99.90;;;;;;5049112;28;19912;-79
2022/12/21 03:43:24;;;;;;;;;;;8.60;99.90;;;;;;5052157;28;19916;-78
2022/12/21 03:45:53;;;;;;;;;;;8.60;99.90;;;;;;5053800;28;19913;-78
2022/12/21 03:48:21;;;;;;;;;;;8.60;99.90;;;;;;5053053;28;19908;-78
2022/12/21 03:50:49;;;;;;;;;;;8.60;99.90;;;;;;5052771;28;19920;-79
2022/12/21 03:53:23;;;;;;;;;;;8.70;99.90;;;;;;5053083;28;19905;-79
2022/12/21 03:55:51;;;;;;;;;;;8.80;99.90;;;;;;5047145;28;19909;-79
2022/12/21 03:58:17;;;;;;;;;;;8.80;99.90;;;;;;5052923;28;19916;-78
2022/12/21 04:00:44;;;;;;;;;;;8.70;99.90;;;;;;5052795;28;19916;-79
2022/12/21 04:03:10;;;;;;;;;;;8.70;99.90;;;;;;5052707;28;19904;-78
2022/12/21 04:05:44;;;;;;;;;;;8.70;99.90;;;;;;5053458;28;20434;-78
2022/12/21 04:08:10;;;;;;;;;;;8.70;99.90;;;;;;5052832;28;19921;-80
2022/12/21 04:10:36;;;;;;;;;;;8.80;99.90;;;;;;5052639;28;19916;-80
2022/12/21 04:13:02;;;;;;;;;;;8.70;99.90;;;;;;5052904;28;19916;-78
2022/12/21 04:16:03;;;;;;;;;;;8.70;99.90;;;;;;5066145;28;20006;-78
2022/12/21 04:18:14;;;;;;;;;;;8.80;99.90;;;;;;5060307;28;20325;-78
2022/12/21 04:20:41;;;;;;;;;;;8.70;99.90;;;;;;5052173;28;19927;-79
2022/12/21 04:28:36;;;;;;;;;;;8.80;99.90;;;;;;5053483;28;19913;-79
2022/12/21 04:31:02;;;;;;;;;;;8.70;99.90;;;;;;5051654;28;19908;-78
2022/12/21 04:33:30;;;;;;;;;;;8.80;99.90;;;;;;5053059;28;19909;-79
2022/12/21 04:38:41;;;;;;;;;;;8.80;99.90;;;;;;5052211;28;20361;-79
2022/12/21 04:41:08;;;;;;;;;;;8.80;99.90;;;;;;5051291;28;19909;-79
2022/12/21 04:43:38;;;;;;;;;;;8.80;99.90;;;;;;5034979;28;19915;-79
2022/12/21 04:46:05;;;;;;;;;;;8.80;99.90;;;;;;5051835;28;19920;-78
2022/12/21 04:48:32;;;;;;;;;;;8.70;99.90;;;;;;5052973;28;20012;-79
2022/12/21 04:51:04;;;;;;;;;;;8.70;99.90;;;;;;5051452;28;19916;-79
2022/12/21 04:53:30;;;;;;;;;;;8.80;99.90;;;;;;5052857;28;20277;-79
2022/12/21 04:55:56;;;;;;;;;;;8.80;99.90;;;;;;5052495;28;19905;-79
2022/12/21 04:58:22;;;;;;;;;;;8.80;99.90;;;;;;5052041;28;19912;-79
2022/12/21 05:00:48;;;;;;;;;;;8.80;99.90;;;;;;5033751;28;20395;-79
2022/12/21 05:03:14;;;;;;;;;;;8.80;99.90;;;;;;5051869;28;19908;-79
2022/12/21 05:05:40;;;;;;;;;;;8.80;99.90;;;;;;5034412;28;20398;-79
2022/12/21 05:08:06;;;;;;;;;;;8.80;99.90;;;;;;5030361;28;20809;-78
2022/12/21 05:10:32;;;;;;;;;;;8.80;99.90;;;;;;5030498;28;19971;-80
2022/12/21 05:12:58;;;;;;;;;;;8.90;99.90;;;;;;5032318;28;20392;-79
2022/12/21 05:15:24;;;;;;;;;;;8.90;99.90;;;;;;5031606;28;19940;-80
2022/12/21 05:17:50;;;;;;;;;;;8.80;99.90;;;;;;5032559;28;19905;-79
2022/12/21 05:20:16;;;;;;;;;;;8.90;99.90;;;;;;5030455;28;19996;-79
2022/12/21 05:22:44;;;;;;;;;;;8.80;99.90;;;;;;5032420;28;19915;-79
2022/12/21 05:25:10;;;;;;;;;;;8.80;99.90;;;;;;5031470;28;19913;-78
2022/12/21 05:27:35;;;;;;;;;;;8.80;99.90;;;;;;5032361;28;19916;-79
2022/12/21 05:30:02;;;;;;;;;;;8.90;99.90;;;;;;5024174;28;19955;-79
2022/12/21 05:32:28;;;;;;;;;;;8.90;99.90;;;;;;5031765;28;19920;-78
2022/12/21 05:34:54;;;;;;;;;;;8.90;99.90;;;;;;5030756;28;19909;-79
2022/12/21 05:37:20;;;;;;;;;;;8.90;99.90;;;;;;5031372;28;19909;-79
2022/12/21 05:39:46;;;;;;;;;;;8.90;99.90;;;;;;5031072;28;19913;-79
2022/12/21 05:42:11;;;;;;;;;;;8.90;99.90;;;;;;5031449;28;19955;-79
2022/12/21 05:44:37;;;;;;;;;;;8.90;99.90;;;;;;5032235;28;19917;-79
2022/12/21 05:47:03;;;;;;;;;;;9.00;99.90;;;;;;5031335;28;19909;-77
2022/12/21 05:49:29;;;;;;;;;;;8.90;99.90;;;;;;5026555;28;20246;-79
2022/12/21 05:51:55;;;;;;;;;;;9.00;99.90;;;;;;5031779;28;19956;-80
2022/12/21 05:54:21;;;;;;;;;;;8.90;99.90;;;;;;5029676;28;20370;-79
2022/12/21 05:56:47;;;;;;;;;;;9.00;99.90;;;;;;5031658;28;19958;-79
2022/12/21 05:59:13;;;;;;;;;;;8.90;99.90;;;;;;5029280;28;20016;-78
2022/12/21 06:01:39;;;;;;;;;;;8.90;99.90;;;;;;5031635;28;19944;-79
2022/12/21 06:04:05;;;;;;;;;;;8.90;99.90;;;;;;5031397;28;19932;-78
2022/12/21 06:06:31;;;;;;;;;;;8.90;99.90;;;;;;5031537;28;20405;-80
2022/12/21 06:08:57;;;;;;;;;;;9.00;99.90;;;;;;5041685;28;19931;-79
2022/12/21 06:11:23;;;;;;;;;;;9.00;99.90;;;;;;5050675;28;19908;-78
2022/12/21 06:13:50;;;;;;;;;;;9.00;99.90;;;;;;5051924;28;20266;-80
2022/12/21 06:16:18;;;;;;;;;;;9.00;99.90;;;;;;5032324;28;19932;-79
2022/12/21 06:18:46;;;;;;;;;;;9.00;99.90;;;;;;5032554;28;19920;-79
2022/12/21 06:21:13;;;;;;;;;;;9.00;99.90;;;;;;5032276;28;19931;-80
2022/12/21 06:23:39;;;;;;;;;;;9.00;99.90;;;;;;5051394;28;19916;-80
2022/12/21 06:26:05;;;;;;;;;;;9.10;99.90;;;;;;5051256;28;20004;-80
2022/12/21 06:28:31;;;;;;;;;;;9.10;99.90;;;;;;5050336;28;19916;-78
2022/12/21 06:31:05;;;;;;;;;;;9.10;99.90;;;;;;5050474;28;20394;-79
2022/12/21 06:33:31;;;;;;;;;;;9.20;99.90;;;;;;5050205;28;19909;-78
2022/12/21 06:35:57;;;;;;;;;;;9.20;99.90;;;;;;5051364;28;19909;-79
2022/12/21 06:38:24;;;;;;;;;;;9.30;99.90;;;;;;5032828;28;19908;-78
2022/12/21 06:40:57;;;;;;;;;;;9.30;99.90;;;;;;5050089;28;19908;-77
2022/12/21 06:43:28;;;;;;;;;;;9.40;99.90;;;;;;5035773;28;19908;-78
2022/12/21 06:45:55;;;;;;;;;;;9.30;99.90;;;;;;5055121;28;19916;-79
2022/12/21 06:48:21;;;;;;;;;;;9.40;99.90;;;;;;5054669;28;20269;-79
2022/12/21 06:50:54;;;;;;;;;;;9.30;99.90;;;;;;5054074;28;19922;-79
2022/12/21 06:53:21;;;;;;;;;;;9.30;99.90;;;;;;5053346;28;19909;-79
2022/12/21 06:55:47;;;;;;;;;;;9.40;99.90;;;;;;5055068;28;19912;-79
2022/12/21 06:58:13;;;;;;;;;;;9.40;99.90;;;;;;5036487;28;19905;-78
2022/12/21 07:00:39;;;;;;;;;;;9.40;99.90;;;;;;5053488;28;19909;-79
2022/12/21 07:03:05;;;;;;;;;;;9.40;99.90;;;;;;5037125;28;19912;-77
2022/12/21 07:05:31;;;;;;;;;;;9.40;99.90;;;;;;5054024;28;19962;-78
2022/12/21 07:07:57;;;;;;;;;;;9.40;99.90;;;;;;5054579;28;21242;-80
2022/12/21 07:10:23;;;;;;;;;;;9.50;99.90;;;;;;5052640;28;19912;-82
2022/12/21 07:12:49;;;;;;;;;;;9.50;99.90;;;;;;5054568;28;19931;-80
2022/12/21 07:15:15;;;;;;;;;;;9.50;99.90;;;;;;5053510;28;20361;-79
2022/12/21 07:17:41;;;;;;;;;;;9.50;99.90;;;;;;5054431;28;19972;-80
2022/12/21 07:20:07;;;;;;;;;;;9.50;99.90;;;;;;5053392;28;19912;-80
2022/12/21 07:22:33;;;;;;;;;;;9.50;99.90;;;;;;5053556;28;20353;-80
2022/12/21 07:24:59;;;;;;;;;;;9.50;99.90;;;;;;5054434;28;19917;-79
2022/12/21 07:27:25;;;;;;;;;;;9.50;99.90;;;;;;5053583;28;19913;-79
2022/12/21 07:29:51;;;;;;;;;;;9.50;99.90;;;;;;5053443;28;19909;-79
2022/12/21 07:32:17;;;;;;;;;;;9.40;99.90;;;;;;5053351;28;19908;-79
2022/12/21 07:34:43;;;;;;;;;;;9.40;99.90;;;;;;5054393;28;19938;-84
2022/12/21 07:37:09;;;;;;;;;;;9.40;99.90;;;;;;5054651;28;19915;-77
2022/12/21 07:39:35;;;;;;;;;;;9.30;99.90;;;;;;5053765;28;20023;-83
2022/12/21 07:42:01;;;;;;;;;;;9.30;99.90;;;;;;5054457;28;19916;-84
2022/12/21 07:44:27;;;;;;;;;;;9.30;99.90;;;;;;5035255;28;19920;-82
2022/12/21 07:47:13;;;;;;;;;;;9.30;99.90;;;;;;5052619;28;20285;-81
2022/12/21 07:49:39;;;;;;;;;;;9.30;99.90;;;;;;5053338;28;19909;-82
2022/12/21 07:52:05;;;;;;;;;;;9.30;99.90;;;;;;5035499;28;19905;-82
2022/12/21 07:54:31;;;;;;;;;;;9.30;99.90;;;;;;5053303;28;19996;-84
2022/12/21 07:56:58;;;;;;;;;;;9.20;99.90;;;;;;5054234;28;20388;-80
2022/12/21 07:59:24;;;;;;;;;;;9.30;99.90;;;;;;5052525;28;19909;-80
2022/12/21 08:01:50;;;;;;;;;;;9.30;99.90;;;;;;5053310;28;19932;-80
2022/12/21 08:04:16;;;;;;;;;;;9.20;99.90;;;;;;5041886;28;19909;-79
2022/12/21 08:06:42;;;;;;;;;;;9.20;99.90;;;;;;5047727;28;20007;-80
2022/12/21 08:09:09;;;;;;;;;;;9.20;99.90;;;;;;5049378;28;19921;-80
2022/12/21 08:11:35;;;;;;;;;;;9.20;99.90;;;;;;5052860;28;19908;-80
2022/12/21 08:14:01;;;;;;;;;;;9.20;99.90;;;;;;5052607;28;19924;-79
2022/12/21 08:16:27;;;;;;;;;;;9.20;99.90;;;;;;5051594;28;19928;-79
2022/12/21 08:18:55;;;;;;;;;;;9.20;99.90;;;;;;5031167;28;19999;-80
2022/12/21 08:21:20;;;;;;;;;;;9.20;99.90;;;;;;5056303;28;19924;-78
2022/12/21 08:23:47;;;;;;;;;;;9.20;99.90;;;;;;5066922;28;19912;-79
2022/12/21 08:26:13;;;;;;;;;;;9.20;99.90;;;;;;5040621;28;19917;-79
2022/12/21 08:28:40;;;;;;;;;;;9.20;99.90;;;;;;5052187;28;20377;-78
2022/12/21 08:31:11;;;;;;;;;;;9.20;99.90;;;;;;5053396;28;19909;-80
2022/12/21 08:33:37;;;;;;;;;;;9.20;99.90;;;;;;5034077;28;19912;-80
2022/12/21 08:36:07;;;;;;;;;;;9.20;99.90;;;;;;5052633;28;19911;-80
2022/12/21 08:38:33;;;;;;;;;;;9.20;99.90;;;;;;5042590;28;19927;-80
2022/12/21 08:41:03;;;;;;;;;;;9.20;99.90;;;;;;5053155;28;19909;-80
2022/12/21 08:43:29;;;;;;;;;;;9.30;99.90;;;;;;5052580;28;19916;-80
2022/12/21 08:45:55;;;;;;;;;;;9.30;99.90;;;;;;5053108;28;19916;-81
2022/12/21 08:48:21;;;;;;;;;;;9.30;99.90;;;;;;5051649;28;19905;-79
2022/12/21 08:50:51;;;;;;;;;;;9.30;99.90;;;;;;5051825;28;20380;-80
2022/12/21 08:53:17;;;;;;;;;;;9.40;99.90;;;;;;5028355;28;19919;-81
2022/12/21 08:55:43;;;;;;;;;;;9.40;99.90;;;;;;5052499;28;20266;-80
2022/12/21 08:58:09;;;;;;;;;;;9.40;99.90;;;;;;5050330;28;19909;-80
2022/12/21 09:00:35;;;;;;;;;;;9.40;99.90;;;;;;5032591;28;19967;-81
2022/12/21 09:03:01;;;;;;;;;;;9.50;99.90;;;;;;5052543;28;19909;-81
2022/12/21 09:05:27;;;;;;;;;;;9.50;99.90;;;;;;5051403;28;19928;-81
2022/12/21 09:07:53;;;;;;;;;;;9.50;99.90;;;;;;5052240;28;19940;-79
2022/12/21 09:10:19;;;;;;;;;;;9.60;99.90;;;;;;5051342;28;19920;-79
2022/12/21 09:12:45;;;;;;;;;;;9.60;99.90;;;;;;5052473;28;19951;-81
2022/12/21 09:15:11;;;;;;;;;;;9.60;99.90;;;;;;5052455;28;19909;-82
2022/12/21 09:17:37;;;;;;;;;;;9.70;99.90;;;;;;5050674;28;20404;-81
2022/12/21 09:20:03;;;;;;;;;;;9.70;99.90;;;;;;5051287;28;19952;-80
2022/12/21 09:22:29;;;;;;;;;;;9.70;99.90;;;;;;5051791;28;19915;-81
2022/12/21 09:24:55;;;;;;;;;;;9.70;99.90;;;;;;5051321;28;19992;-81
2022/12/21 09:27:21;;;;;;;;;;;9.70;99.90;;;;;;5051610;28;19915;-81
2022/12/21 09:29:47;;;;;;;;;;;9.80;99.90;;;;;;5033419;28;19928;-81
2022/12/21 09:32:13;;;;;;;;;;;9.80;99.90;;;;;;5017958;28;19905;-78
2022/12/21 09:34:39;;;;;;;;;;;9.80;99.90;;;;;;5052281;28;19916;-80
2022/12/21 09:37:05;;;;;;;;;;;9.70;99.90;;;;;;5045155;28;19944;-81
2022/12/21 09:39:31;;;;;;;;;;;9.70;99.90;;;;;;5050251;28;19970;-81
2022/12/21 09:42:03;;;;;;;;;;;9.70;99.90;;;;;;5051984;28;20350;-80
2022/12/21 09:44:41;;;;;;;;;;;9.60;99.90;;;;;;5051717;28;19931;-80
2022/12/21 09:47:12;;;;;;;;;;;9.70;99.90;;;;;;5052055;28;19924;-80
2022/12/21 09:49:41;;;;;;;;;;;9.70;99.90;;;;;;5049501;28;19916;-80
2022/12/21 09:52:14;;;;;;;;;;;9.70;99.90;;;;;;5049010;28;19912;-80
2022/12/21 09:54:43;;;;;;;;;;;9.70;99.90;;;;;;5033199;28;19909;-81
2022/12/21 09:57:12;;;;;;;;;;;9.70;99.90;;;;;;5047807;28;19909;-81
2022/12/21 09:59:38;;;;;;;;;;;9.70;99.90;;;;;;5049869;28;19916;-81
2022/12/21 10:02:22;;;;;;;;;;;9.70;99.90;;;;;;5051967;28;19909;-81
2022/12/21 10:04:54;;;;;;;;;;;9.70;99.90;;;;;;5050498;28;19909;-81
2022/12/21 10:07:29;;;;;;;;;;;9.80;99.90;;;;;;5031258;28;19920;-82
2022/12/21 10:09:58;;;;;;;;;;;9.80;99.90;;;;;;5052005;28;20354;-82
2022/12/21 10:12:33;;;;;;;;;;;9.70;99.90;;;;;;5051696;28;19908;-82
2022/12/21 10:15:08;;;;;;;;;;;9.70;99.90;;;;;;5051684;28;19916;-82
2022/12/21 10:17:37;;;;;;;;;;;9.80;99.90;;;;;;5054700;28;19909;-82
2022/12/21 10:20:06;;;;;;;;;;;9.90;99.90;;;;;;5054265;28;20350;-82
2022/12/21 10:22:36;;;;;;;;;;;10.10;99.90;;;;;;5055069;28;19927;-85
2022/12/21 10:25:05;;;;;;;;;;;10.30;99.90;;;;;;5049079;28;19909;-85
2022/12/21 10:27:47;;;;;;;;;;;10.50;99.90;;;;;;5054374;28;19908;-85
2022/12/21 10:30:15;;;;;;;;;;;10.60;99.90;;;;;;5049710;28;19916;-86
2022/12/21 10:32:44;;;;;;;;;;;10.60;99.90;;;;;;5037320;28;19908;-87
2022/12/21 10:35:22;;;;;;;;;;;10.50;99.90;;;;;;5056449;28;19909;-88
2022/12/21 10:37:52;;;;;;;;;;;10.50;99.90;;;;;;5038241;28;19909;-87
2022/12/21 10:40:19;;;;;;;;;;;10.40;99.90;;;;;;5057364;28;19924;-88
2022/12/21 10:42:49;;;;;;;;;;;10.40;99.90;;;;;;5039656;28;19920;-86
2022/12/21 10:45:16;;;;;;;;;;;10.30;99.90;;;;;;5037344;28;19921;-88
2022/12/21 10:47:44;;;;;;;;;;;10.30;99.90;;;;;;5039278;28;20335;-84
2022/12/21 10:50:14;;;;;;;;;;;10.30;99.90;;;;;;5054641;28;19904;-84
2022/12/21 10:52:45;;;;;;;;;;;10.30;99.90;;;;;;5055581;28;19963;-85
2022/12/21 10:55:17;;;;;;;;;;;10.40;99.90;;;;;;5055452;28;19909;-84
2022/12/21 10:57:47;;;;;;;;;;;10.40;99.90;;;;;;5054452;28;19909;-85
2022/12/21 11:00:21;;;;;;;;;;;10.50;99.90;;;;;;5053979;28;19908;-85
2022/12/21 11:02:47;;;;;;;;;;;10.50;99.90;;;;;;5052923;28;19927;-85
2022/12/21 11:05:32;;;;;;;;;;;10.50;99.90;;;;;;5055291;28;19916;-85
2022/12/21 11:08:13;;;;;;;;;;;10.60;99.50;;;;;;5038318;28;20297;-84
2022/12/21 11:10:58;;;;;;;;;;;10.70;95.70;;;;;;5054431;28;19913;-86
2022/12/21 11:13:29;;;;;;;;;;;10.70;92.30;;;;;;5034175;28;19913;-87
2022/12/21 11:16:09;;;;;;;;;;;10.70;88.90;;;;;;5052594;28;20269;-85
2022/12/21 11:18:41;;;;;;;;;;;10.70;88.50;;;;;;5045188;28;19908;-85
2022/12/21 11:21:21;;;;;;;;;;;10.70;88.80;;;;;;5051828;28;19916;-85
2022/12/21 11:23:55;;;;;;;;;;;10.70;92.90;;;;;;5055341;28;19912;-83
2022/12/21 11:26:23;;;;;;;;;;;10.70;92.90;;;;;;5055119;28;20285;-86
2022/12/21 11:28:49;;;;;;;;;;;10.80;92.20;;;;;;5062649;28;19912;-85
2022/12/21 11:31:15;;;;;;;;;;;10.90;90.20;;;;;;5058125;28;19916;-83
2022/12/21 11:33:45;;;;;;;;;;;10.80;84.10;;;;;;5053033;28;20357;-84
2022/12/21 11:36:15;;;;;;;;;;;10.80;83.10;;;;;;5050876;28;19916;-85
2022/12/21 11:38:41;;;;;;;;;;;10.80;82.40;;;;;;5051548;28;19912;-85
2022/12/21 11:41:09;;;;;;;;;;;10.90;84.50;;;;;;5053556;28;19909;-84
2022/12/21 11:43:49;;;;;;;;;;;11.00;79.20;;;;;;5049541;28;19916;-84
2022/12/21 11:46:18;;;;;;;;;;;11.00;81.20;;;;;;5036106;28;19932;-86
2022/12/21 11:49:16;;;;;;;;;;;10.90;77.80;;;;;;5049477;28;19908;-85
2022/12/21 11:51:50;;;;;;;;;;;10.80;79.90;;;;;;5018802;28;19916;-86
2022/12/21 11:54:16;;;;;;;;;;;10.80;82.70;;;;;;5054212;28;20270;-84
2022/12/21 11:56:51;;;;;;;;;;;10.80;83.50;;;;;;5052071;28;20000;-85
2022/12/21 11:59:49;;;;;;;;;;;10.80;85.60;;;;;;5047152;28;19920;-84
2022/12/21 12:02:39;;;;;;;;;;;10.80;88.40;;;;;;4984300;28;19916;-85
2022/12/21 12:05:08;;;;;;;;;;;10.70;89.70;;;;;;5054204;28;19909;-82
2022/12/21 12:07:43;;;;;;;;;;;10.70;91.60;;;;;;5047242;28;19923;-82
2022/12/21 12:10:18;;;;;;;;;;;10.70;92.70;;;;;;5047671;28;19921;-84
2022/12/21 12:12:56;;;;;;;;;;;10.80;94.10;;;;;;5053976;28;19909;-83
2022/12/21 12:15:22;;;;;;;;;;;10.80;93.10;;;;;;5053396;28;19908;-83
2022/12/21 12:17:48;;;;;;;;;;;10.90;92.80;;;;;;5053616;28;19916;-86
2022/12/21 12:20:23;;;;;;;;;;;11.10;87.60;;;;;;5035093;28;20011;-85
2022/12/21 12:22:58;;;;;;;;;;;11.20;74.10;;;;;;5040515;28;19909;-85
2022/12/21 12:25:27;;;;;;;;;;;11.30;64.30;;;;;;5042595;28;19915;-85
2022/12/21 12:28:00;;;;;;;;;;;11.20;58.90;;;;;;5063603;28;19913;-85
2022/12/21 12:30:32;;;;;;;;;;;11.10;64.20;;;;;;5072377;28;19909;-85
2022/12/21 12:33:01;;;;;;;;;;;11.00;66.70;;;;;;5065396;28;19908;-86
2022/12/21 12:35:59;;;;;;;;;;;11.00;72.40;;;;;;5035568;28;20277;-86
2022/12/21 12:38:28;;;;;;;;;;;11.00;70.40;;;;;;5007396;28;19920;-85
2022/12/21 12:41:00;;;;;;;;;;;11.10;67.20;;;;;;5048231;28;20384;-86
2022/12/21 12:43:44;;;;;;;;;;;11.10;66.90;;;;;;5032483;28;19909;-86
2022/12/21 12:46:13;;;;;;;;;;;11.10;65.00;;;;;;5052300;28;19919;-85
2022/12/21 12:48:54;;;;;;;;;;;11.30;62.60;;;;;;5051448;28;20361;-86
2022/12/21 12:51:22;;;;;;;;;;;11.40;60.20;;;;;;5053527;28;19912;-85
2022/12/21 12:53:48;;;;;;;;;;;11.60;53.40;;;;;;5044676;28;19905;-84
2022/12/21 12:56:22;;;;;;;;;;;11.90;45.10;;;;;;5034683;28;19915;-84
2022/12/21 12:59:02;;;;;;;;;;;11.90;35.70;;;;;;5051385;28;19908;-84
2022/12/21 13:01:55;;;;;;;;;;;12.10;31.10;;;;;;5143490;27;19953;-86
2022/12/21 13:04:33;;;;;;;;;;;12.10;21.90;;;;;;5151100;27;19919;-85
2022/12/21 13:07:02;;;;;;;;;;;12.10;20.40;;;;;;5136561;27;19912;-86
2022/12/21 13:09:36;;;;;;;;;;;12.20;15.80;;;;;;5110581;28;19911;-84
2022/12/21 13:12:08;;;;;;;;;;;12.20;16.00;;;;;;5124454;27;19919;-85
2022/12/21 13:14:37;;;;;;;;;;;12.10;18.30;;;;;;5106064;27;20284;-84
2022/12/21 13:17:22;;;;;;;;;;;12.00;21.00;;;;;;5138297;27;19926;-85
2022/12/21 13:19:50;;;;;;;;;;;11.90;23.40;;;;;;5113457;27;19926;-82
2022/12/21 13:22:18;;;;;;;;;;;11.90;23.60;;;;;;5150733;27;19935;-83
2022/12/21 13:24:47;;;;;;;;;;;11.90;25.20;;;;;;5149902;27;19915;-83
2022/12/21 13:27:24;;;;;;;;;;;11.90;21.50;;;;;;5131949;27;19917;-83
2022/12/21 13:29:56;;;;;;;;;;;11.80;23.10;;;;;;5143790;27;19919;-83
2022/12/21 13:32:25;;;;;;;;;;;11.60;25.80;;;;;;5141983;27;19919;-83
2022/12/21 13:35:00;;;;;;;;;;;11.60;29.10;;;;;;5140928;27;19911;-85
2022/12/21 13:37:26;;;;;;;;;;;11.60;31.20;;;;;;5114500;27;19919;-85
2022/12/21 13:40:04;;;;;;;;;;;11.50;33.30;;;;;;5132714;27;19920;-83
2022/12/21 13:42:47;;;;;;;;;;;11.50;35.60;;;;;;5109124;28;19919;-83
2022/12/21 13:45:13;;;;;;;;;;;11.40;38.60;;;;;;5102041;27;20361;-83
2022/12/21 13:47:39;;;;;;;;;;;11.40;42.20;;;;;;5130010;27;19914;-83
2022/12/21 13:50:20;;;;;;;;;;;11.30;44.00;;;;;;5164702;27;19903;-84
2022/12/21 13:52:58;;;;;;;;;;;11.40;46.10;;;;;;5125366;27;19915;-87
2022/12/21 13:55:32;;;;;;;;;;;11.40;45.90;;;;;;5111698;27;19919;-84
2022/12/21 13:58:05;;;;;;;;;;;11.40;44.10;;;;;;5130851;27;19911;-86
2022/12/21 14:00:39;;;;;;;;;;;11.40;44.40;;;;;;5110670;28;19923;-86
2022/12/21 14:03:05;;;;;;;;;;;11.40;44.80;;;;;;5114470;28;19912;-86
2022/12/21 14:05:36;;;;;;;;;;;11.30;44.70;;;;;;5110541;28;19919;-87
2022/12/21 14:08:29;;;;;;;;;;;11.30;45.30;;;;;;5112063;28;19919;-86
2022/12/21 14:11:13;;;;;;;;;;;11.20;47.90;;;;;;5092391;27;19919;-86
2022/12/21 14:13:45;;;;;;;;;;;11.20;50.80;;;;;;5096888;27;20258;-85
2022/12/21 14:16:14;;;;;;;;;;;11.20;52.80;;;;;;5136161;27;19918;-86
2022/12/21 14:18:40;;;;;;;;;;;11.20;55.40;;;;;;5125639;27;19908;-87
2022/12/21 14:21:22;;;;;;;;;;;11.20;56.80;;;;;;5116156;28;19934;-88
2022/12/21 14:24:11;;;;;;;;;;;11.20;59.40;;;;;;5103403;27;19923;-87
2022/12/21 14:26:53;;;;;;;;;;;11.20;63.00;;;;;;5136405;27;19922;-86
2022/12/21 14:29:21;;;;;;;;;;;11.10;69.50;;;;;;5117917;27;20224;-87
2022/12/21 14:31:48;;;;;;;;;;;11.00;79.60;;;;;;5138408;27;19942;-87
2022/12/21 14:34:15;;;;;;;;;;;11.00;86.90;;;;;;5112333;28;19912;-87
2022/12/21 14:37:00;;;;;;;;;;;10.90;90.90;;;;;;5127656;27;19907;-87
2022/12/21 14:39:38;;;;;;;;;;;10.90;93.90;;;;;;5146445;27;19918;-83
2022/12/21 14:42:23;;;;;;;;;;;10.80;97.50;;;;;;5122329;27;19911;-87
2022/12/21 14:45:07;;;;;;;;;;;10.90;99.70;;;;;;5127264;27;19930;-85
2022/12/21 14:47:33;;;;;;;;;;;10.80;99.90;;;;;;5099629;28;19912;-85
2022/12/21 14:50:01;;;;;;;;;;;10.80;99.90;;;;;;5101627;28;19950;-86
2022/12/21 14:52:47;;;;;;;;;;;10.80;99.90;;;;;;5103743;28;19927;-85